^^
Station Historical Data
Daily Summary for March 18, 2017 Units:  Both    English   Metric
« Previous Day
Next Day »
Daily Weekly Monthly Yearly Custom
  High: Low: Average:
Temperature: 84.0 °F /  28.9 °C 59.9 °F /  15.5 °C 70.7 °F /  21.5 °C
Dew Point: 57.4 °F /  14.1 °C 48.0 °F /  8.9 °C 53.2 °F /  11.8 °C
Humidity: 83% 30% 57%
Wind Speed: 11.0mph /  17.7km/h - 1.6mph /  2.6km/h
Wind Gust: 15.0mph /  24.1km/h - -
Wind- - East
Pressure: 29.96 in /  1014.4 hPa 29.85 in /  1010.7 hPa -
Precipitation: 0.00 in /  0 mm    
Historical Graphs
 
 
Tabular Data for March 18, 2017
Time Temperature Dew Point Pressure Wind Wind Speed Wind Gust Humidity Rainfall Rate (Hourly) solar Conditions
00:03 65.8 °F /  18.8 °C 55.0 °F /  12.8 °C 29.89in /  1012.1hPa Calm     68% 0.00in /  0mm 0.0 W/m2
00:09 65.7 °F /  18.7 °C 54.9 °F /  12.7 °C 29.90in /  1012.4hPa Calm     68% 0.00in /  0mm 0.0 W/m2
00:15 65.7 °F /  18.7 °C 55.2 °F /  12.9 °C 29.90in /  1012.4hPa Calm     69% 0.00in /  0mm 0.0 W/m2
00:21 65.5 °F /  18.6 °C 55.0 °F /  12.8 °C 29.90in /  1012.4hPa Calm   1.0mph /  1.6km/h 69% 0.00in /  0mm 0.0 W/m2
00:27 65.5 °F /  18.6 °C 55.0 °F /  12.8 °C 29.90in /  1012.4hPa Calm     69% 0.00in /  0mm 0.0 W/m2
00:34 65.1 °F /  18.4 °C 54.7 °F /  12.6 °C 29.90in /  1012.4hPa Calm     69% 0.00in /  0mm 0.0 W/m2
00:40 64.9 °F /  18.3 °C 54.1 °F /  12.3 °C 29.90in /  1012.4hPa Calm     68% 0.00in /  0mm 0.0 W/m2
00:46 64.9 °F /  18.3 °C 53.8 °F /  12.1 °C 29.90in /  1012.4hPa Calm     67% 0.00in /  0mm 0.0 W/m2
00:52 64.8 °F /  18.2 °C 53.6 °F /  12 °C 29.90in /  1012.4hPa Calm   1.0mph /  1.6km/h 67% 0.00in /  0mm 0.0 W/m2
00:58 64.8 °F /  18.2 °C 53.6 °F /  12 °C 29.90in /  1012.4hPa Calm     67% 0.00in /  0mm 0.0 W/m2
01:04 64.6 °F /  18.1 °C 53.8 °F /  12.1 °C 29.90in /  1012.4hPa Calm     68% 0.00in /  0mm 0.0 W/m2
01:10 64.6 °F /  18.1 °C 53.8 °F /  12.1 °C 29.90in /  1012.4hPa Calm     68% 0.00in /  0mm 0.0 W/m2
01:17 64.2 °F /  17.9 °C 53.8 °F /  12.1 °C 29.89in /  1012.1hPa Calm     69% 0.00in /  0mm 0.0 W/m2
01:23 64.0 °F /  17.8 °C 53.6 °F /  12 °C 29.89in /  1012.1hPa Calm     69% 0.00in /  0mm 0.0 W/m2
01:29 63.9 °F /  17.7 °C 54.0 °F /  12.2 °C 29.89in /  1012.1hPa Calm     70% 0.00in /  0mm 0.0 W/m2
01:35 63.7 °F /  17.6 °C 53.8 °F /  12.1 °C 29.89in /  1012.1hPa Calm     70% 0.00in /  0mm 0.0 W/m2
01:41 63.3 °F /  17.4 °C 53.8 °F /  12.1 °C 29.89in /  1012.1hPa Calm     71% 0.00in /  0mm 0.0 W/m2
01:47 63.1 °F /  17.3 °C 53.6 °F /  12 °C 29.89in /  1012.1hPa Calm     71% 0.00in /  0mm 0.0 W/m2
01:53 63.0 °F /  17.2 °C 53.8 °F /  12.1 °C 29.88in /  1011.7hPa Calm     72% 0.00in /  0mm 0.0 W/m2
01:59 63.0 °F /  17.2 °C 53.8 °F /  12.1 °C 29.89in /  1012.1hPa Calm     72% 0.00in /  0mm 0.0 W/m2
02:06 62.8 °F /  17.1 °C 54.0 °F /  12.2 °C 29.89in /  1012.1hPa Calm     73% 0.00in /  0mm 0.0 W/m2
02:12 62.6 °F /  17 °C 53.8 °F /  12.1 °C 29.89in /  1012.1hPa Calm     73% 0.00in /  0mm 0.0 W/m2
02:18 62.4 °F /  16.9 °C 54.0 °F /  12.2 °C 29.90in /  1012.4hPa Calm     74% 0.00in /  0mm 0.0 W/m2
02:24 62.2 °F /  16.8 °C 53.8 °F /  12.1 °C 29.90in /  1012.4hPa Calm     74% 0.00in /  0mm 0.0 W/m2
02:30 62.1 °F /  16.7 °C 53.6 °F /  12 °C 29.90in /  1012.4hPa Calm     74% 0.00in /  0mm 0.0 W/m2
02:36 62.1 °F /  16.7 °C 54.0 °F /  12.2 °C 29.90in /  1012.4hPa Calm   1.0mph /  1.6km/h 75% 0.00in /  0mm 0.0 W/m2
02:42 61.9 °F /  16.6 °C 54.3 °F /  12.4 °C 29.90in /  1012.4hPa Calm     76% 0.00in /  0mm 0.0 W/m2
02:48 61.9 °F /  16.6 °C 54.3 °F /  12.4 °C 29.90in /  1012.4hPa Calm     76% 0.00in /  0mm 0.0 W/m2
02:55 61.9 °F /  16.6 °C 54.7 °F /  12.6 °C 29.89in /  1012.1hPa Calm     77% 0.00in /  0mm 0.0 W/m2
03:01 62.1 °F /  16.7 °C 54.3 °F /  12.4 °C 29.89in /  1012.1hPa Calm     76% 0.00in /  0mm 0.0 W/m2
03:07 62.1 °F /  16.7 °C 54.7 °F /  12.6 °C 29.89in /  1012.1hPa Calm     77% 0.00in /  0mm 0.0 W/m2
03:13 62.1 °F /  16.7 °C 54.7 °F /  12.6 °C 29.89in /  1012.1hPa Calm     77% 0.00in /  0mm 0.0 W/m2
03:19 62.1 °F /  16.7 °C 54.7 °F /  12.6 °C 29.89in /  1012.1hPa Calm     77% 0.00in /  0mm 0.0 W/m2
03:25 61.9 °F /  16.6 °C 54.7 °F /  12.6 °C 29.88in /  1011.7hPa Calm     77% 0.00in /  0mm 0.0 W/m2
03:31 61.9 °F /  16.6 °C 54.9 °F /  12.7 °C 29.88in /  1011.7hPa Calm   1.0mph /  1.6km/h 78% 0.00in /  0mm 0.0 W/m2
03:38 61.5 °F /  16.4 °C 54.7 °F /  12.6 °C 29.88in /  1011.7hPa Calm   1.0mph /  1.6km/h 78% 0.00in /  0mm 0.0 W/m2
03:44 61.3 °F /  16.3 °C 54.5 °F /  12.5 °C 29.88in /  1011.7hPa Calm   1.0mph /  1.6km/h 78% 0.00in /  0mm 0.0 W/m2
03:50 61.3 °F /  16.3 °C 54.9 °F /  12.7 °C 29.88in /  1011.7hPa ENE 0.9mph /  1.4km/h 1.0mph /  1.6km/h 79% 0.00in /  0mm 0.0 W/m2
03:56 61.2 °F /  16.2 °C 54.7 °F /  12.6 °C 29.87in /  1011.4hPa Calm   2.0mph /  3.2km/h 79% 0.00in /  0mm 0.0 W/m2
04:02 61.2 °F /  16.2 °C 54.7 °F /  12.6 °C 29.87in /  1011.4hPa Calm     79% 0.00in /  0mm 0.0 W/m2
04:08 61.0 °F /  16.1 °C 54.5 °F /  12.5 °C 29.88in /  1011.7hPa Calm     79% 0.00in /  0mm 0.0 W/m2
04:14 61.0 °F /  16.1 °C 54.5 °F /  12.5 °C 29.88in /  1011.7hPa Calm     79% 0.00in /  0mm 0.0 W/m2
04:20 61.0 °F /  16.1 °C 54.5 °F /  12.5 °C 29.88in /  1011.7hPa Calm     79% 0.00in /  0mm 0.0 W/m2
04:27 60.6 °F /  15.9 °C 54.5 °F /  12.5 °C 29.88in /  1011.7hPa Calm     80% 0.00in /  0mm 0.0 W/m2
04:33 60.6 °F /  15.9 °C 54.5 °F /  12.5 °C 29.88in /  1011.7hPa Calm     80% 0.00in /  0mm 0.0 W/m2
04:39 60.4 °F /  15.8 °C 54.3 °F /  12.4 °C 29.88in /  1011.7hPa Calm     80% 0.00in /  0mm 0.0 W/m2
04:45 60.3 °F /  15.7 °C 54.1 °F /  12.3 °C 29.88in /  1011.7hPa Calm     80% 0.00in /  0mm 0.0 W/m2
04:51 60.1 °F /  15.6 °C 54.3 °F /  12.4 °C 29.88in /  1011.7hPa Calm     81% 0.00in /  0mm 0.0 W/m2
04:57 59.9 °F /  15.5 °C 54.3 °F /  12.4 °C 29.88in /  1011.7hPa East 1.0mph /  1.6km/h 1.0mph /  1.6km/h 82% 0.00in /  0mm 0.0 W/m2
05:03 59.9 °F /  15.5 °C 54.3 °F /  12.4 °C 29.88in /  1011.7hPa Calm     82% 0.00in /  0mm 0.0 W/m2
05:10 59.9 °F /  15.5 °C 54.3 °F /  12.4 °C 29.89in /  1012.1hPa Calm     82% 0.00in /  0mm 0.0 W/m2
05:16 60.1 °F /  15.6 °C 54.9 °F /  12.7 °C 29.89in /  1012.1hPa Calm     83% 0.00in /  0mm 0.0 W/m2
05:22 60.3 °F /  15.7 °C 55.0 °F /  12.8 °C 29.89in /  1012.1hPa Calm     83% 0.00in /  0mm 0.0 W/m2
05:28 60.3 °F /  15.7 °C 55.0 °F /  12.8 °C 29.89in /  1012.1hPa Calm     83% 0.00in /  0mm 0.0 W/m2
05:34 60.4 °F /  15.8 °C 55.2 °F /  12.9 °C 29.89in /  1012.1hPa Calm     83% 0.00in /  0mm 0.0 W/m2
05:40 60.4 °F /  15.8 °C 54.9 °F /  12.7 °C 29.89in /  1012.1hPa Calm     82% 0.00in /  0mm 0.0 W/m2
05:46 60.6 °F /  15.9 °C 55.0 °F /  12.8 °C 29.90in /  1012.4hPa Calm     82% 0.00in /  0mm 0.0 W/m2
05:52 60.6 °F /  15.9 °C 55.0 °F /  12.8 °C 29.90in /  1012.4hPa Calm     82% 0.00in /  0mm 0.0 W/m2
05:59 60.6 °F /  15.9 °C 55.0 °F /  12.8 °C 29.90in /  1012.4hPa Calm     82% 0.00in /  0mm 0.0 W/m2
06:05 60.6 °F /  15.9 °C 55.0 °F /  12.8 °C 29.90in /  1012.4hPa Calm   1.0mph /  1.6km/h 82% 0.00in /  0mm 0.0 W/m2
06:11 60.6 °F /  15.9 °C 55.0 °F /  12.8 °C 29.90in /  1012.4hPa Calm     82% 0.00in /  0mm 0.0 W/m2
06:17 60.8 °F /  16 °C 55.2 °F /  12.9 °C 29.90in /  1012.4hPa Calm     82% 0.00in /  0mm 0.0 W/m2
06:23 60.8 °F /  16 °C 55.2 °F /  12.9 °C 29.91in /  1012.8hPa Calm     82% 0.00in /  0mm 0.0 W/m2
06:29 61.0 °F /  16.1 °C 55.4 °F /  13 °C 29.91in /  1012.8hPa Calm     82% 0.00in /  0mm 0.0 W/m2
06:35 61.0 °F /  16.1 °C 55.4 °F /  13 °C 29.91in /  1012.8hPa Calm     82% 0.00in /  0mm 0.0 W/m2
06:42 61.0 °F /  16.1 °C 55.4 °F /  13 °C 29.91in /  1012.8hPa Calm     82% 0.00in /  0mm 0.0 W/m2
06:48 61.0 °F /  16.1 °C 55.4 °F /  13 °C 29.91in /  1012.8hPa Calm     82% 0.00in /  0mm 0.0 W/m2
06:54 61.0 °F /  16.1 °C 55.4 °F /  13 °C 29.91in /  1012.8hPa Calm     82% 0.00in /  0mm 0.0 W/m2
07:00 60.8 °F /  16 °C 55.2 °F /  12.9 °C 29.91in /  1012.8hPa Calm   1.0mph /  1.6km/h 82% 0.00in /  0mm 5.0 W/m2
07:06 60.6 °F /  15.9 °C 55.0 °F /  12.8 °C 29.91in /  1012.8hPa Calm   1.0mph /  1.6km/h 82% 0.00in /  0mm 9.0 W/m2
07:12 60.6 °F /  15.9 °C 55.4 °F /  13 °C 29.92in /  1013.1hPa Calm     83% 0.00in /  0mm 14.0 W/m2
07:18 60.6 °F /  15.9 °C 55.4 °F /  13 °C 29.92in /  1013.1hPa Calm     83% 0.00in /  0mm 23.0 W/m2
07:24 60.6 °F /  15.9 °C 55.4 °F /  13 °C 29.92in /  1013.1hPa Calm   1.0mph /  1.6km/h 83% 0.00in /  0mm 32.0 W/m2
07:31 60.8 °F /  16 °C 55.6 °F /  13.1 °C 29.92in /  1013.1hPa Calm     83% 0.00in /  0mm 33.0 W/m2
07:37 61.0 °F /  16.1 °C 55.8 °F /  13.2 °C 29.92in /  1013.1hPa Calm   1.0mph /  1.6km/h 83% 0.00in /  0mm 40.0 W/m2
07:43 61.3 °F /  16.3 °C 56.1 °F /  13.4 °C 29.93in /  1013.4hPa Calm     83% 0.00in /  0mm 56.0 W/m2
07:49 61.5 °F /  16.4 °C 55.9 °F /  13.3 °C 29.93in /  1013.4hPa Calm   1.0mph /  1.6km/h 82% 0.00in /  0mm 63.0 W/m2
07:55 62.1 °F /  16.7 °C 56.5 °F /  13.6 °C 29.93in /  1013.4hPa Calm   2.0mph /  3.2km/h 82% 0.00in /  0mm 74.0 W/m2
08:01 62.4 °F /  16.9 °C 56.1 °F /  13.4 °C 29.93in /  1013.4hPa Calm     80% 0.00in /  0mm 76.0 W/m2
08:07 63.1 °F /  17.3 °C 57.2 °F /  14 °C 29.93in /  1013.4hPa Calm     81% 0.00in /  0mm 84.0 W/m2
08:14 63.7 °F /  17.6 °C 56.7 °F /  13.7 °C 29.93in /  1013.4hPa Calm   1.0mph /  1.6km/h 78% 0.00in /  0mm 102.0 W/m2
08:20 64.0 °F /  17.8 °C 57.0 °F /  13.9 °C 29.94in /  1013.8hPa Calm   1.0mph /  1.6km/h 78% 0.00in /  0mm 121.0 W/m2
08:26 64.6 °F /  18.1 °C 56.8 °F /  13.8 °C 29.93in /  1013.4hPa Calm     76% 0.00in /  0mm 125.0 W/m2
08:32 64.9 °F /  18.3 °C 56.8 °F /  13.8 °C 29.94in /  1013.8hPa Calm     75% 0.00in /  0mm 125.0 W/m2
08:38 65.5 °F /  18.6 °C 57.4 °F /  14.1 °C 29.94in /  1013.8hPa Calm     75% 0.00in /  0mm 128.0 W/m2
08:44 65.8 °F /  18.8 °C 57.4 °F /  14.1 °C 29.94in /  1013.8hPa Calm     74% 0.00in /  0mm 146.0 W/m2
08:50 66.4 °F /  19.1 °C 55.9 °F /  13.3 °C 29.94in /  1013.8hPa Calm   5.0mph /  8km/h 69% 0.00in /  0mm 193.0 W/m2
08:56 67.1 °F /  19.5 °C 56.1 °F /  13.4 °C 29.94in /  1013.8hPa NE 0.9mph /  1.4km/h 4.0mph /  6.4km/h 68% 0.00in /  0mm 176.0 W/m2
09:02 67.8 °F /  19.9 °C 55.6 °F /  13.1 °C 29.94in /  1013.8hPa NE 0.9mph /  1.4km/h 6.0mph /  9.7km/h 65% 0.00in /  0mm 183.0 W/m2
09:09 68.7 °F /  20.4 °C 56.1 °F /  13.4 °C 29.94in /  1013.8hPa Calm   7.0mph /  11.3km/h 64% 0.00in /  0mm 301.0 W/m2
09:15 70.0 °F /  21.1 °C 55.9 °F /  13.3 °C 29.94in /  1013.8hPa ENE 6.0mph /  9.7km/h 9.0mph /  14.5km/h 61% 0.00in /  0mm 163.0 W/m2
09:21 70.9 °F /  21.6 °C 55.4 °F /  13 °C 29.94in /  1013.8hPa ENE 4.9mph /  7.9km/h 8.0mph /  12.9km/h 58% 0.00in /  0mm 142.0 W/m2
09:27 71.2 °F /  21.8 °C 55.8 °F /  13.2 °C 29.94in /  1013.8hPa NE 6.9mph /  11.1km/h 8.0mph /  12.9km/h 58% 0.00in /  0mm 162.0 W/m2
09:33 71.6 °F /  22 °C 55.6 °F /  13.1 °C 29.95in /  1014.1hPa ENE 6.9mph /  11.1km/h 10.0mph /  16.1km/h 57% 0.00in /  0mm 195.0 W/m2
09:39 71.4 °F /  21.9 °C 55.9 °F /  13.3 °C 29.95in /  1014.1hPa NE 4.9mph /  7.9km/h 5.0mph /  8km/h 58% 0.00in /  0mm 213.0 W/m2
09:45 71.6 °F /  22 °C 56.1 °F /  13.4 °C 29.95in /  1014.1hPa NNE 2.0mph /  3.2km/h 7.0mph /  11.3km/h 58% 0.00in /  0mm 258.0 W/m2
09:52 71.8 °F /  22.1 °C 56.1 °F /  13.4 °C 29.95in /  1014.1hPa NE 4.0mph /  6.4km/h 7.0mph /  11.3km/h 58% 0.00in /  0mm 193.0 W/m2
09:58 71.6 °F /  22 °C 56.1 °F /  13.4 °C 29.94in /  1013.8hPa North 2.9mph /  4.7km/h 7.0mph /  11.3km/h 58% 0.00in /  0mm 315.0 W/m2
10:04 72.0 °F /  22.2 °C 56.3 °F /  13.5 °C 29.94in /  1013.8hPa ENE 4.9mph /  7.9km/h 8.0mph /  12.9km/h 58% 0.00in /  0mm 473.0 W/m2
10:10 72.3 °F /  22.4 °C 55.8 °F /  13.2 °C 29.94in /  1013.8hPa NE 2.0mph /  3.2km/h 8.0mph /  12.9km/h 56% 0.00in /  0mm 255.0 W/m2
10:16 72.5 °F /  22.5 °C 55.4 °F /  13 °C 29.95in /  1014.1hPa NNE 4.9mph /  7.9km/h 8.0mph /  12.9km/h 55% 0.00in /  0mm 264.0 W/m2
10:22 72.7 °F /  22.6 °C 55.6 °F /  13.1 °C 29.95in /  1014.1hPa ENE 0.9mph /  1.4km/h 11.0mph /  17.7km/h 55% 0.00in /  0mm 357.0 W/m2
10:28 72.9 °F /  22.7 °C 55.2 °F /  12.9 °C 29.95in /  1014.1hPa ENE 4.0mph /  6.4km/h 8.0mph /  12.9km/h 54% 0.00in /  0mm 489.0 W/m2
10:34 73.6 °F /  23.1 °C 54.9 °F /  12.7 °C 29.95in /  1014.1hPa NNE 2.0mph /  3.2km/h 12.0mph /  19.3km/h 52% 0.00in /  0mm 585.0 W/m2
10:41 74.1 °F /  23.4 °C 54.9 °F /  12.7 °C 29.95in /  1014.1hPa North 2.9mph /  4.7km/h 9.0mph /  14.5km/h 51% 0.00in /  0mm 617.0 W/m2
10:47 75.0 °F /  23.9 °C 55.0 °F /  12.8 °C 29.95in /  1014.1hPa SE 2.9mph /  4.7km/h 8.0mph /  12.9km/h 50% 0.00in /  0mm 744.0 W/m2
10:53 75.7 °F /  24.3 °C 55.2 °F /  12.9 °C 29.95in /  1014.1hPa East 0.9mph /  1.4km/h 9.0mph /  14.5km/h 49% 0.00in /  0mm 882.0 W/m2
10:59 76.8 °F /  24.9 °C 56.3 °F /  13.5 °C 29.95in /  1014.1hPa NE 2.9mph /  4.7km/h 8.0mph /  12.9km/h 49% 0.00in /  0mm 766.0 W/m2
11:05 77.5 °F /  25.3 °C 55.0 °F /  12.8 °C 29.95in /  1014.1hPa NE 4.9mph /  7.9km/h 11.0mph /  17.7km/h 46% 0.00in /  0mm 877.0 W/m2
11:11 77.7 °F /  25.4 °C 55.2 °F /  12.9 °C 29.95in /  1014.1hPa East 6.0mph /  9.7km/h 10.0mph /  16.1km/h 46% 0.00in /  0mm 858.0 W/m2
11:17 77.9 °F /  25.5 °C 54.9 °F /  12.7 °C 29.95in /  1014.1hPa SE 0.9mph /  1.4km/h 7.0mph /  11.3km/h 45% 0.00in /  0mm 846.0 W/m2
11:23 78.1 °F /  25.6 °C 54.3 °F /  12.4 °C 29.95in /  1014.1hPa East 6.0mph /  9.7km/h 13.0mph /  20.9km/h 44% 0.00in /  0mm 846.0 W/m2
11:30 78.4 °F /  25.8 °C 55.4 °F /  13 °C 29.95in /  1014.1hPa Calm   7.0mph /  11.3km/h 45% 0.00in /  0mm 970.0 W/m2
11:36 78.8 °F /  26 °C 55.0 °F /  12.8 °C 29.95in /  1014.1hPa NE 4.0mph /  6.4km/h 11.0mph /  17.7km/h 44% 0.00in /  0mm 555.0 W/m2
11:42 78.6 °F /  25.9 °C 54.9 °F /  12.7 °C 29.95in /  1014.1hPa NE 2.0mph /  3.2km/h 9.0mph /  14.5km/h 44% 0.00in /  0mm 652.0 W/m2
11:48 78.4 °F /  25.8 °C 55.9 °F /  13.3 °C 29.94in /  1013.8hPa NE 2.0mph /  3.2km/h 4.0mph /  6.4km/h 46% 0.00in /  0mm 756.0 W/m2
11:54 78.6 °F /  25.9 °C 56.1 °F /  13.4 °C 29.94in /  1013.8hPa NE 4.0mph /  6.4km/h 7.0mph /  11.3km/h 46% 0.00in /  0mm 740.0 W/m2
12:00 78.6 °F /  25.9 °C 54.9 °F /  12.7 °C 29.94in /  1013.8hPa NE 4.9mph /  7.9km/h 8.0mph /  12.9km/h 44% 0.00in /  0mm 847.0 W/m2
12:06 78.8 °F /  26 °C 55.0 °F /  12.8 °C 29.94in /  1013.8hPa ESE 2.0mph /  3.2km/h 7.0mph /  11.3km/h 44% 0.00in /  0mm 765.0 W/m2
12:12 79.2 °F /  26.2 °C 54.1 °F /  12.3 °C 29.93in /  1013.4hPa East 2.0mph /  3.2km/h 6.0mph /  9.7km/h 42% 0.00in /  0mm 877.0 W/m2
12:19 80.1 °F /  26.7 °C 54.9 °F /  12.7 °C 29.93in /  1013.4hPa ESE 2.0mph /  3.2km/h 6.0mph /  9.7km/h 42% 0.00in /  0mm 951.0 W/m2
12:25 79.9 °F /  26.6 °C 55.4 °F /  13 °C 29.93in /  1013.4hPa NE 2.0mph /  3.2km/h 8.0mph /  12.9km/h 43% 0.00in /  0mm 983.0 W/m2
12:31 80.1 °F /  26.7 °C 55.6 °F /  13.1 °C 29.93in /  1013.4hPa SE 2.9mph /  4.7km/h 4.0mph /  6.4km/h 43% 0.00in /  0mm 199.0 W/m2
12:37 80.2 °F /  26.8 °C 54.3 °F /  12.4 °C 29.92in /  1013.1hPa South 4.0mph /  6.4km/h 9.0mph /  14.5km/h 41% 0.00in /  0mm 281.0 W/m2
12:43 80.6 °F /  27 °C 53.4 °F /  11.9 °C 29.93in /  1013.4hPa SE 6.9mph /  11.1km/h 9.0mph /  14.5km/h 39% 0.00in /  0mm 1055.0 W/m2
12:49 80.8 °F /  27.1 °C 53.6 °F /  12 °C 29.92in /  1013.1hPa Calm   7.0mph /  11.3km/h 39% 0.00in /  0mm 1095.0 W/m2
12:55 81.0 °F /  27.2 °C 52.2 °F /  11.2 °C 29.91in /  1012.8hPa Calm   5.0mph /  8km/h 37% 0.00in /  0mm 211.0 W/m2
13:01 81.0 °F /  27.2 °C 52.9 °F /  11.6 °C 29.91in /  1012.8hPa SSE 4.0mph /  6.4km/h 13.0mph /  20.9km/h 38% 0.00in /  0mm 1002.0 W/m2
13:08 81.9 °F /  27.7 °C 53.8 °F /  12.1 °C 29.91in /  1012.8hPa East 4.0mph /  6.4km/h 7.0mph /  11.3km/h 38% 0.00in /  0mm 1037.0 W/m2
13:14 82.0 °F /  27.8 °C 53.2 °F /  11.8 °C 29.90in /  1012.4hPa Calm   7.0mph /  11.3km/h 37% 0.00in /  0mm 1078.0 W/m2
13:20 82.9 °F /  28.3 °C 51.6 °F /  10.9 °C 29.90in /  1012.4hPa ENE 4.9mph /  7.9km/h 10.0mph /  16.1km/h 34% 0.00in /  0mm 1093.0 W/m2
13:26 82.9 °F /  28.3 °C 50.9 °F /  10.5 °C 29.90in /  1012.4hPa SSE 2.0mph /  3.2km/h 7.0mph /  11.3km/h 33% 0.00in /  0mm 257.0 W/m2
13:32 82.9 °F /  28.3 °C 53.2 °F /  11.8 °C 29.89in /  1012.1hPa SE 8.1mph /  13km/h 9.0mph /  14.5km/h 36% 0.00in /  0mm 1069.0 W/m2
13:38 82.9 °F /  28.3 °C 50.9 °F /  10.5 °C 29.89in /  1012.1hPa NNE 4.9mph /  7.9km/h 6.0mph /  9.7km/h 33% 0.00in /  0mm 309.0 W/m2
13:44 82.9 °F /  28.3 °C 50.9 °F /  10.5 °C 29.89in /  1012.1hPa NNE 4.0mph /  6.4km/h 9.0mph /  14.5km/h 33% 0.00in /  0mm 1039.0 W/m2
13:50 82.9 °F /  28.3 °C 50.0 °F /  10 °C 29.89in /  1012.1hPa NE 0.9mph /  1.4km/h 8.0mph /  12.9km/h 32% 0.00in /  0mm 380.0 W/m2
13:56 81.9 °F /  27.7 °C 50.7 °F /  10.4 °C 29.89in /  1012.1hPa SE 4.9mph /  7.9km/h 9.0mph /  14.5km/h 34% 0.00in /  0mm 206.0 W/m2
14:02 80.8 °F /  27.1 °C 50.5 °F /  10.3 °C 29.89in /  1012.1hPa East 6.9mph /  11.1km/h 9.0mph /  14.5km/h 35% 0.00in /  0mm 211.0 W/m2
14:08 80.6 °F /  27 °C 52.0 °F /  11.1 °C 29.89in /  1012.1hPa ESE 4.9mph /  7.9km/h 10.0mph /  16.1km/h 37% 0.00in /  0mm 979.0 W/m2
14:14 81.3 °F /  27.4 °C 51.8 °F /  11 °C 29.89in /  1012.1hPa ESE 6.0mph /  9.7km/h 11.0mph /  17.7km/h 36% 0.00in /  0mm 995.0 W/m2
14:20 81.7 °F /  27.6 °C 52.2 °F /  11.2 °C 29.88in /  1011.7hPa East 8.1mph /  13km/h 8.1mph /  13km/h 36% 0.00in /  0mm 169.0 W/m2
14:26 81.3 °F /  27.4 °C 51.1 °F /  10.6 °C 29.88in /  1011.7hPa SSE 0.9mph /  1.4km/h 7.0mph /  11.3km/h 35% 0.00in /  0mm 199.0 W/m2
14:32 81.3 °F /  27.4 °C 50.2 °F /  10.1 °C 29.88in /  1011.7hPa East 4.9mph /  7.9km/h 9.0mph /  14.5km/h 34% 0.00in /  0mm 963.0 W/m2
14:38 82.0 °F /  27.8 °C 50.2 °F /  10.1 °C 29.88in /  1011.7hPa SSE 4.0mph /  6.4km/h 11.0mph /  17.7km/h 33% 0.00in /  0mm 930.0 W/m2
14:44 82.6 °F /  28.1 °C 48.0 °F /  8.9 °C 29.88in /  1011.7hPa ENE 2.9mph /  4.7km/h 11.0mph /  17.7km/h 30% 0.00in /  0mm 923.0 W/m2
14:50 83.1 °F /  28.4 °C 48.6 °F /  9.2 °C 29.88in /  1011.7hPa North 8.1mph /  13km/h 11.0mph /  17.7km/h 30% 0.00in /  0mm 958.0 W/m2
14:56 84.0 °F /  28.9 °C 50.2 °F /  10.1 °C 29.88in /  1011.7hPa NNE 11.0mph /  17.7km/h 15.0mph /  24.1km/h 31% 0.00in /  0mm 974.0 W/m2
15:03 83.7 °F /  28.7 °C 48.9 °F /  9.4 °C 29.88in /  1011.7hPa SE 2.0mph /  3.2km/h 6.0mph /  9.7km/h 30% 0.00in /  0mm 206.0 W/m2
15:09 82.8 °F /  28.2 °C 49.1 °F /  9.5 °C 29.88in /  1011.7hPa ENE 6.9mph /  11.1km/h 12.0mph /  19.3km/h 31% 0.00in /  0mm 137.0 W/m2
15:15 82.0 °F /  27.8 °C 50.2 °F /  10.1 °C 29.87in /  1011.4hPa NE 2.0mph /  3.2km/h 10.0mph /  16.1km/h 33% 0.00in /  0mm 837.0 W/m2
15:21 82.8 °F /  28.2 °C 49.8 °F /  9.9 °C 29.87in /  1011.4hPa ESE 6.9mph /  11.1km/h 14.0mph /  22.5km/h 32% 0.00in /  0mm 877.0 W/m2
15:27 83.5 °F /  28.6 °C 49.6 °F /  9.8 °C 29.87in /  1011.4hPa NNE 4.0mph /  6.4km/h 10.0mph /  16.1km/h 31% 0.00in /  0mm 548.0 W/m2
15:39 81.7 °F /  27.6 °C 49.8 °F /  9.9 °C 29.86in /  1011.1hPa SE 2.0mph /  3.2km/h 12.0mph /  19.3km/h 33% 0.00in /  0mm 225.0 W/m2
15:45 81.9 °F /  27.7 °C 50.0 °F /  10 °C 29.86in /  1011.1hPa East 4.0mph /  6.4km/h 10.0mph /  16.1km/h 33% 0.00in /  0mm 846.0 W/m2
15:51 82.6 °F /  28.1 °C 50.5 °F /  10.3 °C 29.86in /  1011.1hPa ENE 4.9mph /  7.9km/h 11.0mph /  17.7km/h 33% 0.00in /  0mm 759.0 W/m2
15:57 82.9 °F /  28.3 °C 50.9 °F /  10.5 °C 29.85in /  1010.7hPa ESE 8.1mph /  13km/h 8.1mph /  13km/h 33% 0.00in /  0mm 786.0 W/m2
16:04 83.1 °F /  28.4 °C 49.3 °F /  9.6 °C 29.86in /  1011.1hPa East 4.0mph /  6.4km/h 9.0mph /  14.5km/h 31% 0.00in /  0mm 174.0 W/m2
16:10 82.6 °F /  28.1 °C 49.8 °F /  9.9 °C 29.85in /  1010.7hPa East 0.9mph /  1.4km/h 8.0mph /  12.9km/h 32% 0.00in /  0mm 230.0 W/m2
16:16 82.2 °F /  27.9 °C 50.2 °F /  10.1 °C 29.85in /  1010.7hPa Calm   5.0mph /  8km/h 33% 0.00in /  0mm 346.0 W/m2
16:22 82.6 °F /  28.1 °C 49.8 °F /  9.9 °C 29.85in /  1010.7hPa NNE 6.0mph /  9.7km/h 14.0mph /  22.5km/h 32% 0.00in /  0mm 628.0 W/m2
16:28 82.6 °F /  28.1 °C 49.8 °F /  9.9 °C 29.85in /  1010.7hPa ENE 4.0mph /  6.4km/h 9.0mph /  14.5km/h 32% 0.00in /  0mm 207.0 W/m2
16:34 82.4 °F /  28 °C 50.4 °F /  10.2 °C 29.85in /  1010.7hPa ESE 4.0mph /  6.4km/h 10.0mph /  16.1km/h 33% 0.00in /  0mm 206.0 W/m2
16:40 82.0 °F /  27.8 °C 50.9 °F /  10.5 °C 29.85in /  1010.7hPa SE 8.1mph /  13km/h 14.0mph /  22.5km/h 34% 0.00in /  0mm 508.0 W/m2
16:46 82.0 °F /  27.8 °C 50.9 °F /  10.5 °C 29.86in /  1011.1hPa SE 2.0mph /  3.2km/h 7.0mph /  11.3km/h 34% 0.00in /  0mm 95.0 W/m2
16:52 81.1 °F /  27.3 °C 50.9 °F /  10.5 °C 29.86in /  1011.1hPa Calm   8.0mph /  12.9km/h 35% 0.00in /  0mm 88.0 W/m2
16:58 80.8 °F /  27.1 °C 50.5 °F /  10.3 °C 29.86in /  1011.1hPa NE 2.0mph /  3.2km/h 9.0mph /  14.5km/h 35% 0.00in /  0mm 450.0 W/m2
17:04 81.3 °F /  27.4 °C 51.1 °F /  10.6 °C 29.85in /  1010.7hPa NNW 0.9mph /  1.4km/h 8.0mph /  12.9km/h 35% 0.00in /  0mm 403.0 W/m2
17:10 81.9 °F /  27.7 °C 50.7 °F /  10.4 °C 29.85in /  1010.7hPa ENE 2.0mph /  3.2km/h 6.0mph /  9.7km/h 34% 0.00in /  0mm 376.0 W/m2
17:16 82.4 °F /  28 °C 51.3 °F /  10.7 °C 29.85in /  1010.7hPa NNE 2.9mph /  4.7km/h 7.0mph /  11.3km/h 34% 0.00in /  0mm 367.0 W/m2
17:22 82.9 °F /  28.3 °C 50.9 °F /  10.5 °C 29.85in /  1010.7hPa East 6.0mph /  9.7km/h 12.0mph /  19.3km/h 33% 0.00in /  0mm 334.0 W/m2
17:28 82.8 °F /  28.2 °C 50.7 °F /  10.4 °C 29.85in /  1010.7hPa East 2.9mph /  4.7km/h 7.0mph /  11.3km/h 33% 0.00in /  0mm 309.0 W/m2
17:34 82.6 °F /  28.1 °C 49.8 °F /  9.9 °C 29.85in /  1010.7hPa SSE 0.9mph /  1.4km/h 8.0mph /  12.9km/h 32% 0.00in /  0mm 288.0 W/m2
17:40 82.4 °F /  28 °C 50.4 °F /  10.2 °C 29.85in /  1010.7hPa East 6.0mph /  9.7km/h 8.0mph /  12.9km/h 33% 0.00in /  0mm 265.0 W/m2
17:46 82.2 °F /  27.9 °C 50.2 °F /  10.1 °C 29.85in /  1010.7hPa East 2.0mph /  3.2km/h 5.0mph /  8km/h 33% 0.00in /  0mm 257.0 W/m2
17:52 82.2 °F /  27.9 °C 50.2 °F /  10.1 °C 29.85in /  1010.7hPa ESE 2.9mph /  4.7km/h 11.0mph /  17.7km/h 33% 0.00in /  0mm 232.0 W/m2
17:58 81.9 °F /  27.7 °C 50.0 °F /  10 °C 29.85in /  1010.7hPa NE 6.9mph /  11.1km/h 11.0mph /  17.7km/h 33% 0.00in /  0mm 171.0 W/m2
18:04 81.7 °F /  27.6 °C 50.5 °F /  10.3 °C 29.85in /  1010.7hPa Calm   5.0mph /  8km/h 34% 0.00in /  0mm 162.0 W/m2
18:10 81.3 °F /  27.4 °C 51.1 °F /  10.6 °C 29.85in /  1010.7hPa ESE 6.0mph /  9.7km/h 7.0mph /  11.3km/h 35% 0.00in /  0mm 102.0 W/m2
18:18 81.0 °F /  27.2 °C 50.0 °F /  10 °C 29.86in /  1011.1hPa SE 0.9mph /  1.4km/h 8.0mph /  12.9km/h 34% 0.00in /  0mm 32.0 W/m2
18:24 80.4 °F /  26.9 °C 50.2 °F /  10.1 °C 29.86in /  1011.1hPa Calm   3.0mph /  4.8km/h 35% 0.00in /  0mm 86.0 W/m2
18:30 80.2 °F /  26.8 °C 50.9 °F /  10.5 °C 29.86in /  1011.1hPa ENE 2.9mph /  4.7km/h 3.0mph /  4.8km/h 36% 0.00in /  0mm 67.0 W/m2
18:36 79.9 °F /  26.6 °C 50.5 °F /  10.3 °C 29.86in /  1011.1hPa NE 0.9mph /  1.4km/h 6.0mph /  9.7km/h 36% 0.00in /  0mm 47.0 W/m2
18:42 79.3 °F /  26.3 °C 50.7 °F /  10.4 °C 29.86in /  1011.1hPa Calm   8.0mph /  12.9km/h 37% 0.00in /  0mm 21.0 W/m2
18:48 78.6 °F /  25.9 °C 50.2 °F /  10.1 °C 29.86in /  1011.1hPa East 2.0mph /  3.2km/h 8.0mph /  12.9km/h 37% 0.00in /  0mm 14.0 W/m2
18:54 78.1 °F /  25.6 °C 50.4 °F /  10.2 °C 29.87in /  1011.4hPa East 4.0mph /  6.4km/h 8.0mph /  12.9km/h 38% 0.00in /  0mm 14.0 W/m2
19:06 76.8 °F /  24.9 °C 50.7 °F /  10.4 °C 29.87in /  1011.4hPa NE 0.9mph /  1.4km/h 3.0mph /  4.8km/h 40% 0.00in /  0mm 0.0 W/m2
19:12 76.1 °F /  24.5 °C 50.7 °F /  10.4 °C 29.88in /  1011.7hPa ENE 6.9mph /  11.1km/h 9.0mph /  14.5km/h 41% 0.00in /  0mm 0.0 W/m2
19:18 75.6 °F /  24.2 °C 51.4 °F /  10.8 °C 29.88in /  1011.7hPa East 2.0mph /  3.2km/h 5.0mph /  8km/h 43% 0.00in /  0mm 0.0 W/m2
19:24 75.0 °F /  23.9 °C 51.1 °F /  10.6 °C 29.88in /  1011.7hPa Calm   1.0mph /  1.6km/h 43% 0.00in /  0mm 0.0 W/m2
19:30 74.7 °F /  23.7 °C 51.3 °F /  10.7 °C 29.88in /  1011.7hPa Calm   3.0mph /  4.8km/h 44% 0.00in /  0mm 0.0 W/m2
19:36 74.1 °F /  23.4 °C 51.4 °F /  10.8 °C 29.89in /  1012.1hPa East 0.9mph /  1.4km/h 1.0mph /  1.6km/h 45% 0.00in /  0mm 0.0 W/m2
19:42 73.6 °F /  23.1 °C 50.9 °F /  10.5 °C 29.89in /  1012.1hPa ESE 2.9mph /  4.7km/h 4.0mph /  6.4km/h 45% 0.00in /  0mm 0.0 W/m2
19:48 73.2 °F /  22.9 °C 51.3 °F /  10.7 °C 29.89in /  1012.1hPa ESE 2.9mph /  4.7km/h 3.0mph /  4.8km/h 46% 0.00in /  0mm 0.0 W/m2
19:54 72.9 °F /  22.7 °C 51.4 °F /  10.8 °C 29.89in /  1012.1hPa ESE 0.9mph /  1.4km/h 5.0mph /  8km/h 47% 0.00in /  0mm 0.0 W/m2
20:00 72.5 °F /  22.5 °C 51.1 °F /  10.6 °C 29.90in /  1012.4hPa Calm   3.0mph /  4.8km/h 47% 0.00in /  0mm 0.0 W/m2
20:06 72.1 °F /  22.3 °C 51.4 °F /  10.8 °C 29.90in /  1012.4hPa Calm   1.0mph /  1.6km/h 48% 0.00in /  0mm 0.0 W/m2
20:12 71.8 °F /  22.1 °C 51.1 °F /  10.6 °C 29.90in /  1012.4hPa East 0.9mph /  1.4km/h 1.0mph /  1.6km/h 48% 0.00in /  0mm 0.0 W/m2
20:18 71.4 °F /  21.9 °C 51.3 °F /  10.7 °C 29.90in /  1012.4hPa Calm   1.0mph /  1.6km/h 49% 0.00in /  0mm 0.0 W/m2
20:24 71.1 °F /  21.7 °C 51.4 °F /  10.8 °C 29.91in /  1012.8hPa Calm     50% 0.00in /  0mm 0.0 W/m2
20:30 70.5 °F /  21.4 °C 51.4 °F /  10.8 °C 29.91in /  1012.8hPa East 0.9mph /  1.4km/h 1.0mph /  1.6km/h 51% 0.00in /  0mm 0.0 W/m2
20:36 70.2 °F /  21.2 °C 51.8 °F /  11 °C 29.91in /  1012.8hPa Calm   1.0mph /  1.6km/h 52% 0.00in /  0mm 0.0 W/m2
20:42 69.6 °F /  20.9 °C 51.8 °F /  11 °C 29.91in /  1012.8hPa Calm   1.0mph /  1.6km/h 53% 0.00in /  0mm 0.0 W/m2
20:48 69.3 °F /  20.7 °C 52.0 °F /  11.1 °C 29.92in /  1013.1hPa Calm   1.0mph /  1.6km/h 54% 0.00in /  0mm 0.0 W/m2
20:54 68.9 °F /  20.5 °C 51.6 °F /  10.9 °C 29.92in /  1013.1hPa Calm   1.0mph /  1.6km/h 54% 0.00in /  0mm 0.0 W/m2
21:00 68.5 °F /  20.3 °C 51.8 °F /  11 °C 29.92in /  1013.1hPa Calm   2.0mph /  3.2km/h 55% 0.00in /  0mm 0.0 W/m2
21:06 68.2 °F /  20.1 °C 51.8 °F /  11 °C 29.92in /  1013.1hPa NE 0.9mph /  1.4km/h 2.0mph /  3.2km/h 56% 0.00in /  0mm 0.0 W/m2
21:12 67.8 °F /  19.9 °C 52.0 °F /  11.1 °C 29.92in /  1013.1hPa Calm   1.0mph /  1.6km/h 57% 0.00in /  0mm 0.0 W/m2
21:18 67.5 °F /  19.7 °C 52.2 °F /  11.2 °C 29.93in /  1013.4hPa NE 2.0mph /  3.2km/h 2.0mph /  3.2km/h 58% 0.00in /  0mm 0.0 W/m2
21:24 67.1 °F /  19.5 °C 51.8 °F /  11 °C 29.93in /  1013.4hPa NE 2.0mph /  3.2km/h 3.0mph /  4.8km/h 58% 0.00in /  0mm 0.0 W/m2
21:30 66.7 °F /  19.3 °C 52.0 °F /  11.1 °C 29.93in /  1013.4hPa Calm   2.0mph /  3.2km/h 59% 0.00in /  0mm 0.0 W/m2
21:36 66.7 °F /  19.3 °C 52.0 °F /  11.1 °C 29.94in /  1013.8hPa Calm   2.0mph /  3.2km/h 59% 0.00in /  0mm 0.0 W/m2
21:42 66.6 °F /  19.2 °C 51.8 °F /  11 °C 29.94in /  1013.8hPa Calm   2.0mph /  3.2km/h 59% 0.00in /  0mm 0.0 W/m2
21:48 66.4 °F /  19.1 °C 51.6 °F /  10.9 °C 29.94in /  1013.8hPa Calm   2.0mph /  3.2km/h 59% 0.00in /  0mm 0.0 W/m2
21:54 66.2 °F /  19 °C 51.4 °F /  10.8 °C 29.94in /  1013.8hPa Calm   2.0mph /  3.2km/h 59% 0.00in /  0mm 0.0 W/m2
22:00 66.2 °F /  19 °C 51.4 °F /  10.8 °C 29.94in /  1013.8hPa Calm   1.0mph /  1.6km/h 59% 0.00in /  0mm 0.0 W/m2
22:06 66.2 °F /  19 °C 52.0 °F /  11.1 °C 29.94in /  1013.8hPa Calm   4.0mph /  6.4km/h 60% 0.00in /  0mm 0.0 W/m2
22:12 66.2 °F /  19 °C 52.0 °F /  11.1 °C 29.94in /  1013.8hPa Calm   2.0mph /  3.2km/h 60% 0.00in /  0mm 0.0 W/m2
22:18 66.0 °F /  18.9 °C 51.8 °F /  11 °C 29.95in /  1014.1hPa East 0.9mph /  1.4km/h 3.0mph /  4.8km/h 60% 0.00in /  0mm 0.0 W/m2
22:24 66.0 °F /  18.9 °C 51.8 °F /  11 °C 29.95in /  1014.1hPa Calm   2.0mph /  3.2km/h 60% 0.00in /  0mm 0.0 W/m2
22:30 65.8 °F /  18.8 °C 51.6 °F /  10.9 °C 29.95in /  1014.1hPa Calm   2.0mph /  3.2km/h 60% 0.00in /  0mm 0.0 W/m2
22:36 65.8 °F /  18.8 °C 52.0 °F /  11.1 °C 29.95in /  1014.1hPa Calm   2.0mph /  3.2km/h 61% 0.00in /  0mm 0.0 W/m2
22:42 65.8 °F /  18.8 °C 52.0 °F /  11.1 °C 29.95in /  1014.1hPa Calm   1.0mph /  1.6km/h 61% 0.00in /  0mm 0.0 W/m2
22:48 65.8 °F /  18.8 °C 52.0 °F /  11.1 °C 29.95in /  1014.1hPa Calm   3.0mph /  4.8km/h 61% 0.00in /  0mm 0.0 W/m2
22:54 65.7 °F /  18.7 °C 51.8 °F /  11 °C 29.95in /  1014.1hPa Calm   2.0mph /  3.2km/h 61% 0.00in /  0mm 0.0 W/m2
23:00 65.7 °F /  18.7 °C 52.3 °F /  11.3 °C 29.95in /  1014.1hPa ENE 0.9mph /  1.4km/h 4.0mph /  6.4km/h 62% 0.00in /  0mm 0.0 W/m2
23:06 65.7 °F /  18.7 °C 52.3 °F /  11.3 °C 29.95in /  1014.1hPa Calm   3.0mph /  4.8km/h 62% 0.00in /  0mm 0.0 W/m2
23:12 65.7 °F /  18.7 °C 52.3 °F /  11.3 °C 29.95in /  1014.1hPa ENE 0.9mph /  1.4km/h 1.0mph /  1.6km/h 62% 0.00in /  0mm 0.0 W/m2
23:18 65.5 °F /  18.6 °C 52.2 °F /  11.2 °C 29.96in /  1014.4hPa Calm   2.0mph /  3.2km/h 62% 0.00in /  0mm 0.0 W/m2
23:25 65.3 °F /  18.5 °C 52.0 °F /  11.1 °C 29.96in /  1014.4hPa Calm     62% 0.00in /  0mm 0.0 W/m2
23:31 65.1 °F /  18.4 °C 52.2 °F /  11.2 °C 29.96in /  1014.4hPa Calm   3.0mph /  4.8km/h 63% 0.00in /  0mm 0.0 W/m2
23:37 64.9 °F /  18.3 °C 52.0 °F /  11.1 °C 29.96in /  1014.4hPa ENE 0.9mph /  1.4km/h 2.0mph /  3.2km/h 63% 0.00in /  0mm 0.0 W/m2
23:43 64.8 °F /  18.2 °C 51.8 °F /  11 °C 29.96in /  1014.4hPa Calm   1.0mph /  1.6km/h 63% 0.00in /  0mm 0.0 W/m2
23:49 64.8 °F /  18.2 °C 52.3 °F /  11.3 °C 29.96in /  1014.4hPa Calm   1.0mph /  1.6km/h 64% 0.00in /  0mm 0.0 W/m2
23:55 64.6 °F /  18.1 °C 52.2 °F /  11.2 °C 29.96in /  1014.4hPa ENE 0.9mph /  1.4km/h 1.0mph /  1.6km/h 64% 0.00in /  0mm 0.0 W/m2
Olympia, Windhoek, Namibia
Compliments of Weather Underground - 3 mb